map of VAP home
VAP - Airport
Location
City:  Viña del Mar, Valparaíso, Chile
Near (Alt.):Valparaíso
Name:Rodelillo Airport
ICAO:SCRD
IATA:VAP

Details
Type:Airport (Aerodrome, Airfield)
Use:Public/Civil
Latitude:33°04'06"S (-33.068332)
Longitude:71°33'27"W (-71.557499)
Elevation:1100 ft (335 m)
Variation:2.18°E (WMM2015 magnetic declination)
-0.15° annual change
Runways:1
Longest:2789 × 66 ft (850 × 20 m), paved

Weather
METAR:SCRD 141400Z 21008KT CAVOK 22/04 Q1017

Related Locations
Nearby:
Farthest:AKA: 12398 mi / 19953 km
Ankang, 61, CN

Find:

   beyond  
but within

Other Information
Maps:
NOTAMs:
Links:
Sources:

  
  • flag of Chile
  • flag of Valparaíso
  

Sectional Chart

Flight Planning
at skyvector.com

Satellite Image

Google Maps Satellite view

 

Copyright © 2004-2018 Karl L. Swartz. All rights reserved.
The Great Circle Mapper name and logo are trademarks of the Great Circle Mapper.
All other trademarks mentioned herein belong to their respective owners.
Please see credits for attibutions and further copyright information.

  Follow gcmap on Facebook Follow gcmap on Twitter Follow gcmap on Google+ GCmap on LinkedIn

hCard Microformat

Geo Microformat